sensor_id;sensor_type;location;lat;lon;timestamp;pressure;altitude;pressure_sealevel;temperature;humidity
50550;BME280;36505;52.512;13.460;2022-12-26T00:01:20;100464.16;;;8.00;100.00
50550;BME280;36505;52.512;13.460;2022-12-26T00:03:46;100462.84;;;8.02;100.00
50550;BME280;36505;52.512;13.460;2022-12-26T00:06:17;100465.94;;;8.06;100.00
50550;BME280;36505;52.512;13.460;2022-12-26T00:08:45;100453.63;;;8.03;100.00
50550;BME280;36505;52.512;13.460;2022-12-26T00:11:11;100463.59;;;8.09;100.00
50550;BME280;36505;52.512;13.460;2022-12-26T00:13:37;100459.78;;;8.10;100.00
50550;BME280;36505;52.512;13.460;2022-12-26T00:16:09;100453.50;;;8.10;100.00
50550;BME280;36505;52.512;13.460;2022-12-26T00:18:35;100457.91;;;8.11;100.00
50550;BME280;36505;52.512;13.460;2022-12-26T00:21:00;100460.84;;;8.09;100.00
50550;BME280;36505;52.512;13.460;2022-12-26T00:23:26;100464.75;;;8.13;100.00
50550;BME280;36505;52.512;13.460;2022-12-26T00:25:51;100452.78;;;8.14;100.00
50550;BME280;36505;52.512;13.460;2022-12-26T00:28:17;100430.97;;;8.14;100.00
50550;BME280;36505;52.512;13.460;2022-12-26T00:30:42;100427.19;;;8.15;100.00
50550;BME280;36505;52.512;13.460;2022-12-26T00:33:07;100428.84;;;8.16;100.00
50550;BME280;36505;52.512;13.460;2022-12-26T00:35:33;100437.03;;;8.16;100.00
50550;BME280;36505;52.512;13.460;2022-12-26T00:37:58;100439.75;;;8.16;100.00
50550;BME280;36505;52.512;13.460;2022-12-26T00:40:23;100434.91;;;8.18;100.00
50550;BME280;36505;52.512;13.460;2022-12-26T00:42:49;100448.78;;;8.17;100.00
50550;BME280;36505;52.512;13.460;2022-12-26T00:45:14;100442.25;;;8.18;100.00
50550;BME280;36505;52.512;13.460;2022-12-26T00:47:40;100436.53;;;8.19;100.00
50550;BME280;36505;52.512;13.460;2022-12-26T00:50:05;100427.31;;;8.20;100.00
50550;BME280;36505;52.512;13.460;2022-12-26T00:52:31;100421.00;;;8.20;100.00
50550;BME280;36505;52.512;13.460;2022-12-26T00:54:56;100419.13;;;8.20;100.00
50550;BME280;36505;52.512;13.460;2022-12-26T00:57:22;100424.34;;;8.22;100.00
50550;BME280;36505;52.512;13.460;2022-12-26T00:59:47;100420.78;;;8.21;100.00
50550;BME280;36505;52.512;13.460;2022-12-26T01:02:12;100418.66;;;8.23;100.00
50550;BME280;36505;52.512;13.460;2022-12-26T01:04:56;100417.34;;;8.26;100.00
50550;BME280;36505;52.512;13.460;2022-12-26T01:07:22;100403.69;;;8.26;100.00
50550;BME280;36505;52.512;13.460;2022-12-26T01:09:47;100395.50;;;8.26;100.00
50550;BME280;36505;52.512;13.460;2022-12-26T01:12:12;100390.88;;;8.26;100.00
50550;BME280;36505;52.512;13.460;2022-12-26T01:14:38;100395.28;;;8.27;100.00
50550;BME280;36505;52.512;13.460;2022-12-26T01:17:03;100407.84;;;8.28;100.00
50550;BME280;36505;52.512;13.460;2022-12-26T01:19:28;100393.16;;;8.29;100.00
50550;BME280;36505;52.512;13.460;2022-12-26T01:21:54;100390.44;;;8.29;100.00
50550;BME280;36505;52.512;13.460;2022-12-26T01:24:19;100385.59;;;8.31;100.00
50550;BME280;36505;52.512;13.460;2022-12-26T01:26:44;100385.59;;;8.31;100.00
50550;BME280;36505;52.512;13.460;2022-12-26T01:29:10;100388.34;;;8.31;100.00
50550;BME280;36505;52.512;13.460;2022-12-26T01:31:35;100396.03;;;8.35;100.00
50550;BME280;36505;52.512;13.460;2022-12-26T01:34:01;100398.97;;;8.33;100.00
50550;BME280;36505;52.512;13.460;2022-12-26T01:36:26;100410.25;;;8.37;100.00
50550;BME280;36505;52.512;13.460;2022-12-26T01:38:51;100397.22;;;8.39;100.00
50550;BME280;36505;52.512;13.460;2022-12-26T01:41:17;100394.00;;;8.42;100.00
50550;BME280;36505;52.512;13.460;2022-12-26T01:44:05;100381.19;;;8.42;100.00
50550;BME280;36505;52.512;13.460;2022-12-26T01:46:36;100382.03;;;8.43;100.00
50550;BME280;36505;52.512;13.460;2022-12-26T01:49:30;100375.28;;;8.45;100.00
50550;BME280;36505;52.512;13.460;2022-12-26T01:52:04;100380.97;;;8.44;100.00
50550;BME280;36505;52.512;13.460;2022-12-26T01:54:35;100383.09;;;8.42;100.00
50550;BME280;36505;52.512;13.460;2022-12-26T01:57:05;100373.22;;;8.41;100.00
50550;BME280;36505;52.512;13.460;2022-12-26T01:59:35;100372.16;;;8.42;100.00
50550;BME280;36505;52.512;13.460;2022-12-26T02:02:03;100367.22;;;8.39;100.00
50550;BME280;36505;52.512;13.460;2022-12-26T02:04:33;100376.31;;;8.32;100.00
50550;BME280;36505;52.512;13.460;2022-12-26T02:07:18;100380.47;;;8.35;100.00
50550;BME280;36505;52.512;13.460;2022-12-26T02:09:43;100377.41;;;8.31;100.00
50550;BME280;36505;52.512;13.460;2022-12-26T02:12:16;100371.13;;;8.31;100.00
50550;BME280;36505;52.512;13.460;2022-12-26T02:14:45;100375.75;;;8.30;100.00
50550;BME280;36505;52.512;13.460;2022-12-26T02:17:10;100383.44;;;8.33;100.00
50550;BME280;36505;52.512;13.460;2022-12-26T02:25:33;100372.31;;;8.35;100.00
50550;BME280;36505;52.512;13.460;2022-12-26T02:42:10;100367.31;;;8.44;100.00
50550;BME280;36505;52.512;13.460;2022-12-26T02:48:23;100350.22;;;8.48;100.00
50550;BME280;36505;52.512;13.460;2022-12-26T02:53:52;100359.34;;;8.54;100.00
50550;BME280;36505;52.512;13.460;2022-12-26T02:56:49;100360.16;;;8.54;100.00
50550;BME280;36505;52.512;13.460;2022-12-26T02:59:56;100365.75;;;8.59;100.00
50550;BME280;36505;52.512;13.460;2022-12-26T03:05:57;100367.16;;;8.62;100.00
50550;BME280;36505;52.512;13.460;2022-12-26T03:09:03;100372.59;;;8.62;100.00
50550;BME280;36505;52.512;13.460;2022-12-26T03:11:51;100365.50;;;8.61;100.00
50550;BME280;36505;52.512;13.460;2022-12-26T03:14:43;100364.66;;;8.60;100.00
50550;BME280;36505;52.512;13.460;2022-12-26T03:17:17;100375.84;;;8.59;100.00
50550;BME280;36505;52.512;13.460;2022-12-26T03:19:49;100371.44;;;8.58;100.00
50550;BME280;36505;52.512;13.460;2022-12-26T03:22:35;100373.44;;;8.62;100.00
50550;BME280;36505;52.512;13.460;2022-12-26T03:28:14;100366.31;;;8.61;100.00
50550;BME280;36505;52.512;13.460;2022-12-26T03:30:40;100370.72;;;8.62;100.00
50550;BME280;36505;52.512;13.460;2022-12-26T03:33:19;100372.00;;;8.60;100.00
50550;BME280;36505;52.512;13.460;2022-12-26T03:36:07;100373.81;;;8.66;100.00
50550;BME280;36505;52.512;13.460;2022-12-26T03:41:54;100380.44;;;8.70;100.00
50550;BME280;36505;52.512;13.460;2022-12-26T03:45:02;100367.38;;;8.72;100.00
50550;BME280;36505;52.512;13.460;2022-12-26T03:51:34;100352.41;;;8.75;100.00
50550;BME280;36505;52.512;13.460;2022-12-26T03:54:13;100365.81;;;8.76;100.00
50550;BME280;36505;52.512;13.460;2022-12-26T03:57:04;100367.94;;;8.74;100.00
50550;BME280;36505;52.512;13.460;2022-12-26T04:00:00;100379.47;;;8.76;100.00
50550;BME280;36505;52.512;13.460;2022-12-26T04:02:46;100379.22;;;8.78;100.00
50550;BME280;36505;52.512;13.460;2022-12-26T04:05:32;100371.88;;;8.78;100.00
50550;BME280;36505;52.512;13.460;2022-12-26T04:11:52;100393.47;;;8.80;100.00
50550;BME280;36505;52.512;13.460;2022-12-26T04:14:47;100399.50;;;8.82;100.00
50550;BME280;36505;52.512;13.460;2022-12-26T04:23:27;100385.84;;;8.82;100.00
50550;BME280;36505;52.512;13.460;2022-12-26T04:26:42;100369.97;;;8.79;100.00
50550;BME280;36505;52.512;13.460;2022-12-26T04:29:28;100386.69;;;8.82;100.00
50550;BME280;36505;52.512;13.460;2022-12-26T04:35:18;100396.78;;;8.82;100.00
50550;BME280;36505;52.512;13.460;2022-12-26T04:38:04;100391.81;;;8.79;100.00
50550;BME280;36505;52.512;13.460;2022-12-26T04:40:54;100392.88;;;8.78;100.00
50550;BME280;36505;52.512;13.460;2022-12-26T04:43:40;100399.16;;;8.78;100.00
50550;BME280;36505;52.512;13.460;2022-12-26T04:46:26;100403.56;;;8.79;100.00
50550;BME280;36505;52.512;13.460;2022-12-26T04:48:53;100399.78;;;8.80;100.00
50550;BME280;36505;52.512;13.460;2022-12-26T04:51:37;100400.00;;;8.79;100.00
50550;BME280;36505;52.512;13.460;2022-12-26T04:54:04;100393.72;;;8.78;100.00
50550;BME280;36505;52.512;13.460;2022-12-26T04:56:29;100392.28;;;8.76;100.00
50550;BME280;36505;52.512;13.460;2022-12-26T04:58:55;100389.09;;;8.79;100.00
50550;BME280;36505;52.512;13.460;2022-12-26T05:01:20;100399.78;;;8.80;100.00
50550;BME280;36505;52.512;13.460;2022-12-26T05:04:04;100402.59;;;8.85;100.00
50550;BME280;36505;52.512;13.460;2022-12-26T05:06:48;100405.31;;;8.85;100.00
50550;BME280;36505;52.512;13.460;2022-12-26T05:09:33;100410.78;;;8.85;100.00
50550;BME280;36505;52.512;13.460;2022-12-26T05:11:59;100405.09;;;8.87;100.00
50550;BME280;36505;52.512;13.460;2022-12-26T05:14:25;100409.47;;;8.88;100.00
50550;BME280;36505;52.512;13.460;2022-12-26T05:16:50;100415.50;;;8.90;100.00
50550;BME280;36505;52.512;13.460;2022-12-26T05:19:34;100419.44;;;8.94;100.00
50550;BME280;36505;52.512;13.460;2022-12-26T05:22:18;100417.50;;;8.94;100.00
50550;BME280;36505;52.512;13.460;2022-12-26T05:25:03;100423.81;;;8.95;100.00
50550;BME280;36505;52.512;13.460;2022-12-26T05:27:47;100424.06;;;8.93;100.00
50550;BME280;36505;52.512;13.460;2022-12-26T05:30:30;100423.81;;;8.95;100.00
50550;BME280;36505;52.512;13.460;2022-12-26T05:32:56;100428.19;;;8.96;100.00
50550;BME280;36505;52.512;13.460;2022-12-26T05:35:40;100430.94;;;8.96;100.00
50550;BME280;36505;52.512;13.460;2022-12-26T05:38:08;100420.59;;;8.98;100.00
50550;BME280;36505;52.512;13.460;2022-12-26T05:40:34;100433.19;;;8.99;100.00
50550;BME280;36505;52.512;13.460;2022-12-26T05:43:00;100425.00;;;8.99;100.00
50550;BME280;36505;52.512;13.460;2022-12-26T05:45:25;100434.03;;;8.99;100.00
50550;BME280;36505;52.512;13.460;2022-12-26T05:47:57;100441.16;;;9.00;100.00
50550;BME280;36505;52.512;13.460;2022-12-26T05:50:23;100443.06;;;9.00;100.00
50550;BME280;36505;52.512;13.460;2022-12-26T05:52:48;100436.50;;;9.01;100.00
50550;BME280;36505;52.512;13.460;2022-12-26T05:55:13;100438.41;;;9.00;100.00
50550;BME280;36505;52.512;13.460;2022-12-26T05:57:39;100443.38;;;9.03;100.00
50550;BME280;36505;52.512;13.460;2022-12-26T06:00:05;100434.84;;;9.00;100.00
50550;BME280;36505;52.512;13.460;2022-12-26T06:02:30;100451.09;;;9.06;100.00
50550;BME280;36505;52.512;13.460;2022-12-26T06:04:55;100441.59;;;9.09;100.00
50550;BME280;36505;52.512;13.460;2022-12-26T06:07:21;100440.19;;;9.06;100.00
50550;BME280;36505;52.512;13.460;2022-12-26T06:09:46;100434.44;;;9.08;100.00
50550;BME280;36505;52.512;13.460;2022-12-26T06:12:11;100437.19;;;9.08;100.00
50550;BME280;36505;52.512;13.460;2022-12-26T06:14:37;100442.66;;;9.08;100.00
50550;BME280;36505;52.512;13.460;2022-12-26T06:17:02;100445.97;;;9.10;100.00
50550;BME280;36505;52.512;13.460;2022-12-26T06:19:28;100447.63;;;9.11;100.00
50550;BME280;36505;52.512;13.460;2022-12-26T06:21:53;100454.25;;;9.15;100.00
50550;BME280;36505;52.512;13.460;2022-12-26T06:24:19;100450.69;;;9.15;100.00
50550;BME280;36505;52.512;13.460;2022-12-26T06:26:44;100442.78;;;9.13;100.00
50550;BME280;36505;52.512;13.460;2022-12-26T06:29:09;100438.63;;;9.10;100.00
50550;BME280;36505;52.512;13.460;2022-12-26T06:31:35;100435.41;;;9.14;100.00
50550;BME280;36505;52.512;13.460;2022-12-26T06:34:00;100439.22;;;9.13;100.00
50550;BME280;36505;52.512;13.460;2022-12-26T06:36:28;100437.53;;;9.11;100.00
50550;BME280;36505;52.512;13.460;2022-12-26T06:38:54;100446.56;;;9.12;100.00
50550;BME280;36505;52.512;13.460;2022-12-26T06:41:22;100458.34;;;9.13;100.00
50550;BME280;36505;52.512;13.460;2022-12-26T06:43:48;100472.56;;;9.15;100.00
50550;BME280;36505;52.512;13.460;2022-12-26T06:46:15;100478.63;;;9.17;100.00
50550;BME280;36505;52.512;13.460;2022-12-26T06:48:41;100478.63;;;9.17;100.00
50550;BME280;36505;52.512;13.460;2022-12-26T06:51:13;100483.47;;;9.15;100.00
50550;BME280;36505;52.512;13.460;2022-12-26T06:53:38;100476.94;;;9.16;100.00
50550;BME280;36505;52.512;13.460;2022-12-26T06:56:18;100488.94;;;9.15;100.00
50550;BME280;36505;52.512;13.460;2022-12-26T06:58:44;100498.81;;;9.16;100.00
50550;BME280;36505;52.512;13.460;2022-12-26T07:01:15;100500.47;;;9.17;100.00
50550;BME280;36505;52.512;13.460;2022-12-26T07:03:41;100512.47;;;9.16;100.00
50550;BME280;36505;52.512;13.460;2022-12-26T07:06:11;100512.47;;;9.16;100.00
50550;BME280;36505;52.512;13.460;2022-12-26T07:08:37;100508.19;;;9.20;100.00
50550;BME280;36505;52.512;13.460;2022-12-26T07:11:02;100512.00;;;9.19;100.00
50550;BME280;36505;52.512;13.460;2022-12-26T07:13:28;100505.47;;;9.20;100.00
50550;BME280;36505;52.512;13.460;2022-12-26T07:15:54;100507.38;;;9.19;100.00
50550;BME280;36505;52.512;13.460;2022-12-26T07:18:22;100508.19;;;9.20;100.00
50550;BME280;36505;52.512;13.460;2022-12-26T07:20:48;100507.59;;;9.18;100.00
50550;BME280;36505;52.512;13.460;2022-12-26T07:23:14;100506.53;;;9.19;100.00
50550;BME280;36505;52.512;13.460;2022-12-26T07:25:39;100508.91;;;9.15;100.00
50550;BME280;36505;52.512;13.460;2022-12-26T07:28:05;100514.50;;;9.20;100.00
50550;BME280;36505;52.512;13.460;2022-12-26T07:30:30;100506.88;;;9.22;100.00
50550;BME280;36505;52.512;13.460;2022-12-26T07:32:56;100509.38;;;9.24;100.00
50550;BME280;36505;52.512;13.460;2022-12-26T07:35:21;100512.09;;;9.24;100.00
50550;BME280;36505;52.512;13.460;2022-12-26T07:37:46;100515.91;;;9.23;100.00
50550;BME280;36505;52.512;13.460;2022-12-26T07:40:12;100516.50;;;9.25;100.00
50550;BME280;36505;52.512;13.460;2022-12-26T07:42:37;100516.50;;;9.25;100.00
50550;BME280;36505;52.512;13.460;2022-12-26T07:45:03;100518.16;;;9.26;100.00
50550;BME280;36505;52.512;13.460;2022-12-26T07:47:28;100505.34;;;9.26;99.96
50550;BME280;36505;52.512;13.460;2022-12-26T07:49:54;100511.38;;;9.28;100.00
50550;BME280;36505;52.512;13.460;2022-12-26T07:52:19;100508.06;;;9.26;99.73
50550;BME280;36505;52.512;13.460;2022-12-26T07:54:45;100518.75;;;9.28;100.00
50550;BME280;36505;52.512;13.460;2022-12-26T07:57:10;100525.28;;;9.27;99.98
50550;BME280;36505;52.512;13.460;2022-12-26T07:59:36;100531.00;;;9.25;100.00
50550;BME280;36505;52.512;13.460;2022-12-26T08:02:01;100535.94;;;9.28;99.95
50550;BME280;36505;52.512;13.460;2022-12-26T08:04:30;100544.75;;;9.30;99.96
50550;BME280;36505;52.512;13.460;2022-12-26T08:06:56;100541.78;;;9.32;100.00
50550;BME280;36505;52.512;13.460;2022-12-26T08:09:21;100541.78;;;9.32;99.85
50550;BME280;36505;52.512;13.460;2022-12-26T08:11:46;100542.63;;;9.32;99.82
50550;BME280;36505;52.512;13.460;2022-12-26T08:14:12;100536.91;;;9.34;100.00
50550;BME280;36505;52.512;13.460;2022-12-26T08:16:38;100538.56;;;9.35;99.95
50550;BME280;36505;52.512;13.460;2022-12-26T08:19:04;100528.94;;;9.32;99.95
50550;BME280;36505;52.512;13.460;2022-12-26T08:21:29;100532.84;;;9.36;99.87
50550;BME280;36505;52.512;13.460;2022-12-26T08:23:55;100530.34;;;9.35;100.00
50550;BME280;36505;52.512;13.460;2022-12-26T08:26:20;100532.63;;;9.38;100.00
50550;BME280;36505;52.512;13.460;2022-12-26T08:28:48;100533.44;;;9.38;99.88
50550;BME280;36505;52.512;13.460;2022-12-26T08:31:13;100536.78;;;9.40;99.23
50550;BME280;36505;52.512;13.460;2022-12-26T08:33:39;100539.50;;;9.40;99.36
50550;BME280;36505;52.512;13.460;2022-12-26T08:36:07;100541.41;;;9.40;99.53
50550;BME280;36505;52.512;13.460;2022-12-26T08:38:33;100541.41;;;9.40;99.56
50550;BME280;36505;52.512;13.460;2022-12-26T08:40:58;100537.13;;;9.44;99.54
50550;BME280;36505;52.512;13.460;2022-12-26T08:43:24;100528.22;;;9.37;99.27
50550;BME280;36505;52.512;13.460;2022-12-26T08:46:01;100546.16;;;9.44;99.42
50550;BME280;36505;52.512;13.460;2022-12-26T08:48:28;100535.22;;;9.44;99.15
50550;BME280;36505;52.512;13.460;2022-12-26T08:50:58;100526.78;;;9.46;99.14
50550;BME280;36505;52.512;13.460;2022-12-26T08:53:25;100537.34;;;9.54;98.95
50550;BME280;36505;52.512;13.460;2022-12-26T08:55:51;100530.19;;;9.53;98.48
50550;BME280;36505;52.512;13.460;2022-12-26T08:58:16;100545.53;;;9.54;98.72
50550;BME280;36505;52.512;13.460;2022-12-26T09:00:42;100546.94;;;9.57;98.60
50550;BME280;36505;52.512;13.460;2022-12-26T09:03:07;100540.63;;;9.56;98.88
50550;BME280;36505;52.512;13.460;2022-12-26T09:05:33;100553.47;;;9.56;98.66
50550;BME280;36505;52.512;13.460;2022-12-26T09:07:58;100552.06;;;9.53;98.71
50550;BME280;36505;52.512;13.460;2022-12-26T09:10:24;100566.56;;;9.54;99.02
50550;BME280;36505;52.512;13.460;2022-12-26T09:12:50;100566.06;;;9.57;99.05
50550;BME280;36505;52.512;13.460;2022-12-26T09:15:15;100569.63;;;9.57;99.06
50550;BME280;36505;52.512;13.460;2022-12-26T09:17:40;100576.53;;;9.60;98.96
50550;BME280;36505;52.512;13.460;2022-12-26T09:20:06;100580.09;;;9.60;99.00
50550;BME280;36505;52.512;13.460;2022-12-26T09:22:32;100583.41;;;9.62;99.07
50550;BME280;36505;52.512;13.460;2022-12-26T09:25:20;100586.72;;;9.64;99.25
50550;BME280;36505;52.512;13.460;2022-12-26T09:27:47;100589.00;;;9.67;99.20
50550;BME280;36505;52.512;13.460;2022-12-26T09:30:13;100576.53;;;9.60;99.24
50550;BME280;36505;52.512;13.460;2022-12-26T09:32:39;100578.06;;;9.67;98.92
50550;BME280;36505;52.512;13.460;2022-12-26T09:35:05;100586.44;;;9.77;98.83
50550;BME280;36505;52.512;13.460;2022-12-26T09:37:30;100593.81;;;9.77;98.63
50550;BME280;36505;52.512;13.460;2022-12-26T09:39:56;100587.88;;;9.80;98.61
50550;BME280;36505;52.512;13.460;2022-12-26T09:45:03;100573.69;;;9.83;98.04
50550;BME280;36505;52.512;13.460;2022-12-26T09:55:18;100571.13;;;10.05;96.27
50550;BME280;36505;52.512;13.460;2022-12-26T09:57:51;100576.81;;;10.03;96.22
50550;BME280;36505;52.512;13.460;2022-12-26T10:00:27;100570.78;;;10.01;96.55
50550;BME280;36505;52.512;13.460;2022-12-26T10:23:50;100608.09;;;10.19;92.13
50550;BME280;36505;52.512;13.460;2022-12-26T10:27:24;100534.31;;;9.67;92.77
50550;BME280;36505;52.512;13.460;2022-12-26T10:43:43;100598.59;;;10.10;93.25
50550;BME280;36505;52.512;13.460;2022-12-26T10:48:57;100594.44;;;10.07;93.35
50550;BME280;36505;52.512;13.460;2022-12-26T10:51:23;100593.25;;;10.03;93.69
50550;BME280;36505;52.512;13.460;2022-12-26T10:53:51;100580.91;;;10.01;93.93
50550;BME280;36505;52.512;13.460;2022-12-26T10:56:19;100600.16;;;10.06;92.77
50550;BME280;36505;52.512;13.460;2022-12-26T10:58:52;100608.03;;;10.02;93.10
50550;BME280;36505;52.512;13.460;2022-12-26T11:04:00;100592.31;;;9.98;92.96
50550;BME280;36505;52.512;13.460;2022-12-26T11:06:31;100590.66;;;9.97;92.87
50550;BME280;36505;52.512;13.460;2022-12-26T11:08:58;100609.00;;;9.96;92.95
50550;BME280;36505;52.512;13.460;2022-12-26T11:11:26;100618.97;;;9.90;92.65
50550;BME280;36505;52.512;13.460;2022-12-26T11:14:30;100612.13;;;9.88;92.43
50550;BME280;36505;52.512;13.460;2022-12-26T11:16:59;100608.19;;;9.84;91.84
50550;BME280;36505;52.512;13.460;2022-12-26T11:19:34;100619.41;;;9.82;92.00
50550;BME280;36505;52.512;13.460;2022-12-26T11:24:44;100614.41;;;9.79;92.17
50550;BME280;36505;52.512;13.460;2022-12-26T11:27:18;100606.09;;;9.74;91.80
50550;BME280;36505;52.512;13.460;2022-12-26T11:29:44;100614.78;;;9.71;91.80
50550;BME280;36505;52.512;13.460;2022-12-26T11:32:17;100610.63;;;9.69;91.58
50550;BME280;36505;52.512;13.460;2022-12-26T11:34:46;100597.19;;;9.67;91.17
50550;BME280;36505;52.512;13.460;2022-12-26T11:39:49;100589.22;;;9.66;91.37
50550;BME280;36505;52.512;13.460;2022-12-26T11:42:20;100589.69;;;9.63;91.20
50550;BME280;36505;52.512;13.460;2022-12-26T11:44:47;100593.16;;;9.58;91.70
50550;BME280;36505;52.512;13.460;2022-12-26T11:47:19;100595.06;;;9.58;91.60
50550;BME280;36505;52.512;13.460;2022-12-26T11:50:04;100606.84;;;9.58;91.39
50550;BME280;36505;52.512;13.460;2022-12-26T11:52:43;100602.94;;;9.54;91.69
50550;BME280;36505;52.512;13.460;2022-12-26T12:00:26;100608.75;;;9.58;91.73
50550;BME280;36505;52.512;13.460;2022-12-26T12:02:53;100600.78;;;9.56;91.36
50550;BME280;36505;52.512;13.460;2022-12-26T12:13:22;100611.34;;;9.64;92.28
50550;BME280;36505;52.512;13.460;2022-12-26T12:21:01;100604.06;;;9.70;91.83
50550;BME280;36505;52.512;13.460;2022-12-26T12:23:41;100594.22;;;9.69;92.18
50550;BME280;36505;52.512;13.460;2022-12-26T12:26:30;100591.72;;;9.67;92.26
50550;BME280;36505;52.512;13.460;2022-12-26T12:29:21;100583.66;;;9.61;92.31
50550;BME280;36505;52.512;13.460;2022-12-26T12:32:08;100589.13;;;9.61;91.86
50550;BME280;36505;52.512;13.460;2022-12-26T12:46:16;100579.72;;;9.57;92.77
50550;BME280;36505;52.512;13.460;2022-12-26T12:49:13;100578.06;;;9.56;92.84
50550;BME280;36505;52.512;13.460;2022-12-26T12:51:58;100577.59;;;9.59;93.03
50550;BME280;36505;52.512;13.460;2022-12-26T13:02:29;100579.97;;;9.67;92.52
50550;BME280;36505;52.512;13.460;2022-12-26T13:05:10;100590.66;;;9.68;92.49
50550;BME280;36505;52.512;13.460;2022-12-26T13:07:43;100584.69;;;9.71;91.98
50550;BME280;36505;52.512;13.460;2022-12-26T13:10:38;100588.16;;;9.67;92.12
50550;BME280;36505;52.512;13.460;2022-12-26T13:13:48;100585.66;;;9.65;92.18
50550;BME280;36505;52.512;13.460;2022-12-26T13:16:30;100585.06;;;9.63;92.44
50550;BME280;36505;52.512;13.460;2022-12-26T13:19:03;100582.34;;;9.63;92.53
50550;BME280;36505;52.512;13.460;2022-12-26T13:21:33;100587.56;;;9.65;92.57
50550;BME280;36505;52.512;13.460;2022-12-26T13:24:04;100588.16;;;9.67;92.54
50550;BME280;36505;52.512;13.460;2022-12-26T13:31:43;100584.00;;;9.64;92.29
50550;BME280;36505;52.512;13.460;2022-12-26T13:34:14;100580.94;;;9.61;92.38
50550;BME280;36505;52.512;13.460;2022-12-26T13:36:48;100592.19;;;9.64;92.77
50550;BME280;36505;52.512;13.460;2022-12-26T13:41:48;100586.25;;;9.67;92.79
50550;BME280;36505;52.512;13.460;2022-12-26T13:44:33;100577.69;;;9.64;92.37
50550;BME280;36505;52.512;13.460;2022-12-26T13:46:59;100588.41;;;9.65;92.42
50550;BME280;36505;52.512;13.460;2022-12-26T13:49:37;100593.16;;;9.58;92.56
50550;BME280;36505;52.512;13.460;2022-12-26T14:00:00;100588.84;;;9.34;93.27
50550;BME280;36505;52.512;13.460;2022-12-26T14:02:56;100597.50;;;9.31;93.19
50550;BME280;36505;52.512;13.460;2022-12-26T14:10:47;100605.25;;;9.10;93.52
50550;BME280;36505;52.512;13.460;2022-12-26T14:13:44;100605.00;;;9.12;93.67
50550;BME280;36505;52.512;13.460;2022-12-26T14:19:20;100609.97;;;9.15;93.77
50550;BME280;36505;52.512;13.460;2022-12-26T14:27:26;100622.56;;;9.16;94.06
50550;BME280;36505;52.512;13.460;2022-12-26T14:40:37;100617.97;;;8.93;93.67
50550;BME280;36505;52.512;13.460;2022-12-26T14:50:50;100615.19;;;8.70;94.19
50550;BME280;36505;52.512;13.460;2022-12-26T14:58:44;100622.44;;;8.64;94.43
50550;BME280;36505;52.512;13.460;2022-12-26T15:12:03;100618.03;;;8.75;92.85
50550;BME280;36505;52.512;13.460;2022-12-26T15:17:44;100622.56;;;8.81;92.00
50550;BME280;36505;52.512;13.460;2022-12-26T15:26:18;100630.16;;;8.91;91.06
50550;BME280;36505;52.512;13.460;2022-12-26T15:39:03;100602.59;;;8.81;92.57
50550;BME280;36505;52.512;13.460;2022-12-26T15:41:45;100600.59;;;8.76;93.08
50550;BME280;36505;52.512;13.460;2022-12-26T15:44:24;100600.72;;;8.69;93.31
50550;BME280;36505;52.512;13.460;2022-12-26T15:52:55;100595.13;;;8.53;94.30
50550;BME280;36505;52.512;13.460;2022-12-26T16:00:52;100605.16;;;8.41;95.08
50550;BME280;36505;52.512;13.460;2022-12-26T16:14:32;100602.03;;;8.25;96.62
50550;BME280;36505;52.512;13.460;2022-12-26T16:19:46;100611.72;;;8.21;97.14
50550;BME280;36505;52.512;13.460;2022-12-26T16:22:29;100609.69;;;8.17;97.44
50550;BME280;36505;52.512;13.460;2022-12-26T16:25:24;100609.47;;;8.18;97.91
50550;BME280;36505;52.512;13.460;2022-12-26T16:27:54;100614.53;;;8.15;98.09
50550;BME280;36505;52.512;13.460;2022-12-26T16:30:26;100615.97;;;8.17;98.12
50550;BME280;36505;52.512;13.460;2022-12-26T16:32:52;100615.97;;;8.17;98.39
50550;BME280;36505;52.512;13.460;2022-12-26T16:35:25;100617.66;;;8.18;98.54
50550;BME280;36505;52.512;13.460;2022-12-26T16:37:51;100611.09;;;8.19;98.36
50550;BME280;36505;52.512;13.460;2022-12-26T16:40:32;100619.91;;;8.21;98.32
50550;BME280;36505;52.512;13.460;2022-12-26T16:45:25;100595.22;;;8.16;98.23
50550;BME280;36505;52.512;13.460;2022-12-26T16:47:52;100608.47;;;8.31;97.79
50550;BME280;36505;52.512;13.460;2022-12-26T16:50:21;100621.41;;;8.36;97.41
50550;BME280;36505;52.512;13.460;2022-12-26T16:52:48;100627.69;;;8.36;97.38
50550;BME280;36505;52.512;13.460;2022-12-26T16:55:46;100623.91;;;8.37;97.11
50550;BME280;36505;52.512;13.460;2022-12-26T16:58:18;100629.97;;;8.39;96.67
50550;BME280;36505;52.512;13.460;2022-12-26T17:01:32;100633.16;;;8.36;96.65
50550;BME280;36505;52.512;13.460;2022-12-26T17:03:54;100645.50;;;8.39;96.75
50550;BME280;36505;52.512;13.460;2022-12-26T17:06:36;100653.09;;;8.48;96.61
50550;BME280;36505;52.512;13.460;2022-12-26T17:09:13;100655.97;;;8.53;95.84
50550;BME280;36505;52.512;13.460;2022-12-26T17:12:02;100656.78;;;8.54;95.66
50550;BME280;36505;52.512;13.460;2022-12-26T17:14:35;100650.88;;;8.57;95.21
50550;BME280;36505;52.512;13.460;2022-12-26T17:17:05;100662.16;;;8.60;94.85
50550;BME280;36505;52.512;13.460;2022-12-26T17:19:35;100664.88;;;8.60;94.76
50550;BME280;36505;52.512;13.460;2022-12-26T17:24:39;100664.78;;;8.67;93.91
50550;BME280;36505;52.512;13.460;2022-12-26T17:27:14;100662.06;;;8.67;93.15
50550;BME280;36505;52.512;13.460;2022-12-26T17:35:02;100672.50;;;8.70;90.74
50550;BME280;36505;52.512;13.460;2022-12-26T17:37:28;100674.53;;;8.75;90.04